Date,TemperatureHighF,TemperatureAvgF,TemperatureLowF,DewpointHighF,DewpointAvgF,DewpointLowF,HumidityHigh,HumidityAvg,HumidityLow,PressureMaxIn,PressureMinIn,WindSpeedMaxMPH,WindSpeedAvgMPH,GustSpeedMaxMPH,PrecipitationSumIn
2013-3-1,74,57,34,27,19,10,53,25,10,30.35,30.19,15,2,15,0.00
2013-3-2,84,63,40,29,24,15,54,27,9,30.30,30.08,16,2,16,0.00
2013-3-3,56,48,43,30,27,24,49,44,34,30.09,30.03,3,0,3,0.00
2013-3-4,53,50,47,24,24,23,44,41,38,30.01,29.97,2,2,4,0.00
2013-3-5,59,56,53,23,22,22,38,35,32,29.97,29.94,4,3,6,0.00
2013-3-6,64,62,59,22,21,20,32,29,25,29.94,29.91,5,5,8,0.00
2013-3-7,78,68,63,30,21,17,28,22,10,29.91,29.83,12,5,17,0.00
2013-3-8,64,58,41,46,37,29,82,48,27,29.95,29.71,15,7,28,0.15
2013-3-9,55,47,40,39,36,33,89,65,46,30.12,29.95,15,3,15,0.00
2013-3-10,63,54,46,39,36,31,70,52,30,30.18,30.08,22,4,22,0.00
2013-3-11,72,57,39,36,31,23,78,42,17,30.19,30.02,15,2,15,0.00
2013-3-12,82,62,40,39,32,22,65,36,11,30.09,29.97,17,2,17,0.00
2013-3-13,88,69,44,38,30,16,67,30,8,30.11,29.96,16,3,16,0.00
2013-3-14,92,73,50,33,24,5,48,21,4,30.08,29.92,16,2,16,0.00
2013-3-15,94,73,51,32,24,1,39,20,3,29.98,29.82,18,3,18,0.00
2013-3-16,89,71,50,26,19,2,36,17,4,29.85,29.67,22,3,22,0.00
2013-3-17,84,68,50,26,21,17,30,18,9,29.87,29.75,20,3,20,0.00
2013-3-18,82,68,49,34,25,15,43,23,9,29.95,29.84,15,2,15,0.00
2013-3-19,79,67,52,35,30,26,45,26,15,30.00,29.89,19,2,19,0.00
2013-3-20,82,67,50,32,29,24,46,26,13,30.00,29.82,12,2,12,0.00
2013-3-21,78,68,53,35,31,27,43,27,19,29.83,29.67,13,2,13,0.00
2013-3-22,80,70,56,36,31,24,37,25,14,29.75,29.62,23,4,23,0.00
2013-3-23,74,64,48,35,21,-2,51,24,7,29.95,29.75,20,4,20,0.00
2013-3-24,77,62,41,16,6,-14,31,13,3,30.00,29.85,15,3,15,0.00
2013-3-25,80,65,43,19,13,8,27,14,8,29.99,29.86,13,2,13,0.00
2013-3-26,87,70,49,20,14,1,29,14,4,29.94,29.77,15,3,15,0.00
2013-3-27,85,70,52,24,18,14,27,15,8,29.94,29.82,22,3,22,0.00
2013-3-28,85,70,51,31,21,14,29,17,8,30.00,29.89,16,2,19,0.00
2013-3-29,87,72,56,33,22,6,34,17,6,30.03,29.92,14,2,14,0.00
2013-3-30,83,71,56,30,22,14,25,16,8,30.00,29.87,19,3,19,0.00
2013-3-31,86,71,48,30,25,17,43,21,9,29.99,29.83,12,2,12,0.00